首页
METAR-TAF:

METAR-TAF

机场 :

第比利斯国际机场

第比利斯, 格鲁吉亚

纬度: 41-40-09N, 经度: 044-57-17E, 海拔: 495米

当前天气观测

该预报发布于14分钟前的18:00 UTC
风速12节,风向
温度 24°C
湿度 54%
气压 1021 hPa
能见度10公里或以上
1500米以下无云,无积雨云

METAR: UGTB 061800Z 08012KT CAVOK 24/14 Q1021 NOSIG

时间: 22:14 (18:14 UTC)

预报

该预报发布于1小时和14分钟前的17:00 UTC
预报有效从06日的 18点(UTC)到 07日的 18点(UTC)
风速7节,风向北转西北
能见度10公里或以上
1500米以下无云,无积雨云
成为
从 07日的 07点(UTC)到 07日的 09点(UTC)
风速10节,风向东南

TAF: UGTB 061700Z 0618/0718 34007KT CAVOK TX30/0712Z TN16/0702Z BECMG 0707/0709 14010KT

超过4000个机场的气象观测和天气预报(METAR&TAF报告)。

可查询的气象台以黄色和红色小点在地图上表示。

将鼠标移到小点上方,可查看气象台名称。

然后点击查看天气观测和预报。

如需切换地图:点击带黑十字的绿色按钮放大地图;点击带横线的绿色按钮缩小地图;或者点击绿色箭头查看邻近地区的地图。


METAR-TAF: